Time;durP1;ratioP1;P1;durP2;ratioP2;P2;SDS_P1;SDS_P2;PMS_P1;PMS_P2;Temp;Humidity;BMP_temperature;BMP_pressure;BME280_temperature;BME280_humidity;BME280_pressure;Samples;Min_cycle;Max_cycle;Signal;HPM_P1;HPM_P2
2022/04/07 00:00:05;;;;;;;52.60;12.35;;;;;;;12.68;67.35;98221.00;4841623;28;121304;-82
2022/04/07 00:02:31;;;;;;;60.53;16.27;;;;;;;12.73;67.37;98233.16;4806654;29;122130;-83
2022/04/07 00:04:56;;;;;;;44.40;9.63;;;;;;;12.74;67.86;98227.13;4835797;28;119756;-83
2022/04/07 00:07:22;;;;;;;46.15;10.20;;;;;;;12.72;67.20;98224.16;4810393;28;122202;-83
2022/04/07 00:09:47;;;;;;;49.33;8.90;;;;;;;12.75;67.03;98233.38;4837075;28;119934;-83
2022/04/07 00:12:13;;;;;;;46.47;8.95;;;;;;;12.76;67.47;98230.09;4849840;28;121035;-83
2022/04/07 00:14:39;;;;;;;49.13;9.27;;;;;;;12.77;67.20;98236.34;4818428;28;122302;-83
2022/04/07 00:17:05;;;;;;;39.38;8.80;;;;;;;12.72;66.76;98228.94;4806493;28;123027;-82
2022/04/07 00:19:30;;;;;;;49.25;10.75;;;;;;;12.68;67.21;98217.50;4829606;28;120817;-82
2022/04/07 00:21:59;;;;;;;42.63;7.93;;;;;;;12.68;67.00;98221.00;4826344;28;119897;-83
2022/04/07 00:24:27;;;;;;;42.20;7.45;;;;;;;12.68;67.18;98221.00;4825681;28;119770;-83
2022/04/07 00:26:56;;;;;;;40.65;7.63;;;;;;;12.67;66.96;98216.75;4838869;28;120266;-82
2022/04/07 00:29:21;;;;;;;41.70;8.48;;;;;;;12.67;66.63;98205.75;4842124;28;120499;-83
2022/04/07 00:31:55;;;;;;;39.20;7.85;;;;;;;12.72;66.87;98206.94;4806116;28;120408;-83
2022/04/07 00:34:21;;;;;;;37.30;7.82;;;;;;;12.70;67.25;98207.44;4831535;28;121601;-83
2022/04/07 00:36:49;;;;;;;38.95;7.05;;;;;;;12.63;66.64;98182.59;4806196;28;122857;-83
2022/04/07 00:39:15;;;;;;;34.15;7.28;;;;;;;12.63;66.66;98177.09;4834000;28;119875;-83
2022/04/07 00:41:45;;;;;;;37.65;7.10;;;;;;;12.61;66.42;98177.63;4827104;28;119767;-83
2022/04/07 00:44:11;;;;;;;34.42;7.72;;;;;;;12.63;66.43;98180.56;4840430;28;123246;-83
2022/04/07 00:46:40;;;;;;;34.53;6.75;;;;;;;12.55;65.86;98174.22;4809614;28;122274;-82
2022/04/07 00:49:07;;;;;;;36.63;6.57;;;;;;;12.56;66.36;98172.94;4852025;28;121668;-82
2022/04/07 00:51:34;;;;;;;38.13;7.07;;;;;;;12.55;66.52;98163.22;4837045;28;119557;-82
2022/04/07 00:53:59;;;;;;;34.45;7.25;;;;;;;12.52;66.41;98161.50;4820697;28;121644;-84
2022/04/07 00:56:26;;;;;;;32.63;7.45;;;;;;;12.52;65.96;98158.75;4816286;28;122617;-83
2022/04/07 00:58:53;;;;;;;40.35;7.20;;;;;;;12.49;66.45;98157.78;4846597;28;120351;-82
2022/04/07 01:01:22;;;;;;;34.35;6.55;;;;;;;12.41;66.97;98145.94;4853521;28;119705;-83
2022/04/07 01:03:51;;;;;;;33.28;6.93;;;;;;;12.42;66.78;98147.41;4825269;28;122711;-83
2022/04/07 01:06:19;;;;;;;32.70;6.30;;;;;;;12.46;67.27;98139.59;4841004;28;119925;-83
2022/04/07 01:08:45;;;;;;;35.17;7.03;;;;;;;12.49;67.26;98137.81;4817150;28;123287;-83
2022/04/07 01:11:12;;;;;;;29.20;6.55;;;;;;;12.49;67.45;98135.78;4828187;28;119498;-83
2022/04/07 01:13:47;;;;;;;31.02;6.38;;;;;;;12.49;66.95;98129.56;4819143;28;121878;-84
2022/04/07 01:16:14;;;;;;;31.67;6.88;;;;;;;12.44;66.88;98111.88;4830926;28;120014;-82
2022/04/07 01:18:40;;;;;;;32.65;6.28;;;;;;;12.39;66.89;98109.97;4838031;28;119764;-83
2022/04/07 01:21:08;;;;;;;38.88;7.95;;;;;;;12.40;66.42;98105.97;4840305;28;120164;-85
2022/04/07 01:23:38;;;;;;;27.25;6.70;;;;;;;12.42;66.85;98102.69;4821246;28;119913;-82
2022/04/07 01:26:05;;;;;;;24.40;6.88;;;;;;;12.46;66.60;98108.63;4853699;28;119667;-82
2022/04/07 01:28:32;;;;;;;23.30;6.07;;;;;;;12.40;67.19;98094.97;4852266;28;119356;-82
2022/04/07 01:30:57;;;;;;;25.10;6.88;;;;;;;12.42;67.09;98097.94;4835048;28;119887;-81
2022/04/07 01:33:24;;;;;;;26.58;6.95;;;;;;;12.44;66.96;98094.66;4821679;29;121860;-82
2022/04/07 01:35:51;;;;;;;24.85;5.95;;;;;;;12.32;66.96;98065.88;4802808;29;122716;-83
2022/04/07 01:38:17;;;;;;;25.95;6.50;;;;;;;12.41;66.53;98076.47;4837339;28;119739;-82
2022/04/07 01:40:47;;;;;;;25.88;6.38;;;;;;;12.36;67.04;98064.31;4835553;28;119470;-82
2022/04/07 01:43:15;;;;;;;21.10;5.85;;;;;;;12.38;67.00;98072.03;4802081;29;123276;-85
2022/04/07 01:45:42;;;;;;;17.48;6.30;;;;;;;12.34;66.95;98063.34;4837902;28;120145;-84
2022/04/07 01:48:08;;;;;;;21.83;5.72;;;;;;;12.31;66.95;98054.16;4840722;28;120452;-82
2022/04/07 01:50:36;;;;;;;16.77;5.55;;;;;;;12.29;67.27;98054.66;4839566;28;120100;-82
2022/04/07 01:53:02;;;;;;;16.48;5.07;;;;;;;12.22;67.09;98032.56;4836169;28;119831;-82
2022/04/07 01:55:27;;;;;;;19.63;4.90;;;;;;;12.22;67.29;98035.31;4821235;28;122707;-82
2022/04/07 01:57:54;;;;;;;13.25;4.85;;;;;;;12.16;66.97;98032.66;4822059;28;119689;-83
2022/04/07 02:00:20;;;;;;;13.65;4.50;;;;;;;12.13;67.58;98017.22;4818123;29;123750;-83
2022/04/07 02:02:45;;;;;;;9.23;3.63;;;;;;;12.12;67.36;98015.75;4835531;28;122629;-82
2022/04/07 02:05:11;;;;;;;8.68;3.35;;;;;;;12.09;67.62;98019.53;4809054;28;119694;-83
2022/04/07 02:07:43;;;;;;;10.50;3.42;;;;;;;12.17;67.48;98028.63;4805305;29;122026;-82
2022/04/07 02:10:11;;;;;;;9.90;3.63;;;;;;;12.19;67.63;98011.63;4834547;28;122272;-83
2022/04/07 02:12:41;;;;;;;12.15;3.67;;;;;;;12.19;67.72;98026.09;4809129;28;119997;-83
2022/04/07 02:15:08;;;;;;;10.95;3.75;;;;;;;12.21;67.48;98006.34;4802308;28;122762;-82
2022/04/07 02:17:34;;;;;;;11.05;3.97;;;;;;;12.22;67.55;97996.84;4818808;29;119625;-83
2022/04/07 02:20:01;;;;;;;14.38;4.45;;;;;;;12.20;67.29;97986.38;4850940;28;119457;-82
2022/04/07 02:22:28;;;;;;;15.73;4.68;;;;;;;12.20;67.13;97991.13;4835356;28;120073;-84
2022/04/07 02:24:58;;;;;;;15.60;4.95;;;;;;;12.19;67.50;97978.66;4828536;28;119655;-82
2022/04/07 02:27:24;;;;;;;10.93;5.05;;;;;;;12.16;67.38;97972.22;4836775;28;121825;-82
2022/04/07 02:29:50;;;;;;;15.40;5.63;;;;;;;12.16;67.64;97976.97;4836423;28;122796;-82
2022/04/07 02:32:15;;;;;;;15.70;5.93;;;;;;;12.11;67.83;97970.31;4825811;28;119888;-82
2022/04/07 02:34:41;;;;;;;13.38;6.05;;;;;;;12.15;68.41;97969.97;4837676;28;120146;-82
2022/04/07 02:37:08;;;;;;;15.02;6.30;;;;;;;12.12;67.83;97960.78;4822086;28;119728;-83
2022/04/07 02:39:34;;;;;;;13.10;5.95;;;;;;;12.07;68.11;97956.13;4820795;28;120216;-82
2022/04/07 02:42:02;;;;;;;13.63;5.95;;;;;;;11.96;68.19;97937.09;4815382;28;123135;-82
2022/04/07 02:44:28;;;;;;;14.32;6.30;;;;;;;11.99;68.63;97941.53;4839304;28;119568;-82
2022/04/07 02:46:53;;;;;;;10.10;6.15;;;;;;;11.96;68.59;97937.09;4806891;28;121637;-83
2022/04/07 02:49:19;;;;;;;10.70;6.43;;;;;;;11.97;68.83;97936.56;4839266;28;123082;-82
2022/04/07 02:51:44;;;;;;;13.25;7.07;;;;;;;11.95;68.79;97924.63;4822540;28;119655;-82
2022/04/07 02:54:10;;;;;;;12.02;8.60;;;;;;;11.90;69.46;97900.75;4826912;28;123731;-82
2022/04/07 02:56:36;;;;;;;11.95;8.35;;;;;;;11.97;69.35;97911.09;4839763;28;119656;-82
2022/04/07 02:59:02;;;;;;;19.15;9.38;;;;;;;11.98;69.55;97885.13;4838999;28;119965;-82
2022/04/07 03:01:31;;;;;;;15.80;8.93;;;;;;;11.98;69.50;97882.38;4832540;28;123557;-82
2022/04/07 03:03:57;;;;;;;15.00;9.13;;;;;;;11.96;69.74;97871.16;4826893;28;119560;-82
2022/04/07 03:06:23;;;;;;;18.35;8.90;;;;;;;12.05;69.65;97878.25;4832122;28;120423;-83
2022/04/07 03:08:50;;;;;;;14.55;10.05;;;;;;;12.07;69.94;97873.00;4839344;28;120178;-82
2022/04/07 03:11:16;;;;;;;18.73;10.25;;;;;;;12.11;69.81;97876.91;4856081;28;119674;-83
2022/04/07 03:13:41;;;;;;;19.80;11.50;;;;;;;12.12;70.06;97864.63;4818056;29;121900;-82
2022/04/07 03:16:07;;;;;;;18.92;12.13;;;;;;;12.11;70.03;97860.41;4824523;28;122837;-82
2022/04/07 03:18:33;;;;;;;22.25;13.55;;;;;;;12.19;70.09;97849.50;4856268;28;119848;-83
2022/04/07 03:20:59;;;;;;;22.63;13.38;;;;;;;12.24;70.45;97841.16;4822865;28;120166;-82
2022/04/07 03:23:24;;;;;;;22.40;13.65;;;;;;;12.21;70.26;97842.22;4838929;28;119570;-82
2022/04/07 03:25:50;;;;;;;25.88;13.80;;;;;;;12.20;70.34;97823.50;4820551;28;119427;-83
2022/04/07 03:28:16;;;;;;;26.70;13.65;;;;;;;12.26;69.93;97826.88;4836349;28;120367;-83
2022/04/07 03:30:42;;;;;;;21.83;11.93;;;;;;;12.29;69.94;97834.81;4823048;28;119676;-83
2022/04/07 03:33:08;;;;;;;23.98;12.00;;;;;;;12.30;70.08;97824.53;4836780;28;120046;-83
2022/04/07 03:35:34;;;;;;;25.35;11.98;;;;;;;12.40;70.26;97819.38;4838960;28;120037;-84
2022/04/07 03:38:00;;;;;;;26.20;11.68;;;;;;;12.36;69.90;97802.47;4842570;28;119730;-83
2022/04/07 03:40:26;;;;;;;28.20;12.00;;;;;;;12.46;69.58;97819.97;4836295;28;120124;-82
2022/04/07 03:42:52;;;;;;;20.80;12.07;;;;;;;12.47;69.75;97813.94;4826515;28;120736;-83
2022/04/07 03:45:18;;;;;;;22.42;11.98;;;;;;;12.48;69.58;97803.69;4828586;28;121952;-82
2022/04/07 03:47:44;;;;;;;21.88;11.55;;;;;;;12.43;69.44;97785.31;4825794;28;122973;-85
2022/04/07 03:50:10;;;;;;;22.00;11.13;;;;;;;12.52;69.64;97799.34;4838275;28;120346;-83
2022/04/07 03:52:39;;;;;;;20.50;10.80;;;;;;;12.49;69.44;97770.19;4805369;28;121898;-82
2022/04/07 03:55:05;;;;;;;22.92;11.25;;;;;;;12.56;69.13;97771.56;4822691;28;120102;-83
2022/04/07 03:57:30;;;;;;;23.17;12.80;;;;;;;12.52;69.01;97762.88;4820064;28;119585;-82
2022/04/07 03:59:56;;;;;;;22.85;12.07;;;;;;;12.59;69.07;97770.47;4860876;28;119667;-83
2022/04/07 04:02:22;;;;;;;20.98;12.07;;;;;;;12.55;68.45;97756.31;4838372;28;119748;-83
2022/04/07 04:04:47;;;;;;;21.08;11.38;;;;;;;12.44;68.55;97737.31;4852011;28;120433;-83
2022/04/07 04:07:13;;;;;;;24.05;11.02;;;;;;;12.51;69.09;97750.41;4840658;28;121455;-82
2022/04/07 04:09:39;;;;;;;21.23;10.25;;;;;;;12.48;68.96;97746.72;4804180;29;120111;-82
2022/04/07 04:12:05;;;;;;;21.58;10.52;;;;;;;12.55;68.76;97748.81;4836221;28;119805;-83
2022/04/07 04:14:30;;;;;;;20.75;9.63;;;;;;;12.51;68.61;97726.41;4825539;28;123018;-82
2022/04/07 04:16:56;;;;;;;19.58;9.10;;;;;;;12.49;68.85;97720.69;4824444;28;120147;-83
2022/04/07 04:19:22;;;;;;;15.48;8.30;;;;;;;12.59;68.14;97735.47;4820928;28;121821;-82
2022/04/07 04:21:48;;;;;;;19.58;9.02;;;;;;;12.60;68.84;97739.69;4838674;28;121328;-83
2022/04/07 04:24:13;;;;;;;22.45;8.63;;;;;;;12.63;68.79;97737.88;4819582;28;122640;-82
2022/04/07 04:26:42;;;;;;;22.65;9.05;;;;;;;12.66;68.89;97736.81;4821532;28;120020;-82
2022/04/07 04:29:07;;;;;;;17.90;8.95;;;;;;;12.65;68.78;97713.34;4841901;28;120371;-82
2022/04/07 04:31:33;;;;;;;19.60;8.82;;;;;;;12.65;68.84;97726.34;4824719;28;122455;-82
2022/04/07 04:33:59;;;;;;;16.52;8.07;;;;;;;12.66;68.79;97719.56;4834428;28;122790;-82
2022/04/07 04:36:25;;;;;;;21.67;8.30;;;;;;;12.65;68.68;97718.09;4840695;28;119737;-82
2022/04/07 04:38:50;;;;;;;14.40;6.55;;;;;;;12.58;68.61;97703.75;4824005;28;119899;-82
2022/04/07 04:41:16;;;;;;;14.88;4.70;;;;;;;12.51;68.72;97693.41;4822464;28;122983;-82
2022/04/07 04:43:42;;;;;;;8.13;3.50;;;;;;;12.49;68.18;97698.69;4803356;28;120276;-83
2022/04/07 04:46:08;;;;;;;8.68;3.50;;;;;;;12.49;68.51;97708.97;4836610;28;119940;-83
2022/04/07 04:48:34;;;;;;;11.27;4.22;;;;;;;12.49;68.06;97695.22;4837094;28;119626;-82
2022/04/07 04:51:00;;;;;;;11.50;5.05;;;;;;;12.40;68.17;97682.69;4815112;28;120516;-82
2022/04/07 04:53:28;;;;;;;10.43;4.82;;;;;;;12.43;67.62;97684.34;4826423;28;122901;-85
2022/04/07 04:55:54;;;;;;;13.32;6.03;;;;;;;12.43;68.00;97681.59;4819247;29;119586;-82
2022/04/07 04:58:19;;;;;;;17.55;6.00;;;;;;;12.35;68.24;97667.06;4829842;28;121556;-83
2022/04/07 05:00:45;;;;;;;15.25;5.65;;;;;;;12.38;68.81;97676.25;4807701;28;123216;-82
2022/04/07 05:03:11;;;;;;;12.60;5.43;;;;;;;12.35;68.63;97658.09;4822538;29;119914;-83
2022/04/07 05:05:36;;;;;;;15.63;6.05;;;;;;;12.40;68.41;97651.72;4820495;28;120393;-83
2022/04/07 05:08:02;;;;;;;14.30;4.72;;;;;;;12.46;68.62;97660.56;4821777;28;119884;-83
2022/04/07 05:10:27;;;;;;;17.65;4.65;;;;;;;12.42;67.96;97638.19;4851675;28;119346;-83
2022/04/07 05:12:53;;;;;;;17.35;4.60;;;;;;;12.42;67.97;97641.66;4853960;28;120346;-83
2022/04/07 05:15:19;;;;;;;15.60;4.68;;;;;;;12.43;67.87;97634.88;4837754;28;120370;-83
2022/04/07 05:17:49;;;;;;;14.55;5.68;;;;;;;12.44;68.41;97635.63;4852096;28;120627;-84
2022/04/07 05:20:15;;;;;;;15.20;4.65;;;;;;;12.45;68.14;97637.84;4835866;28;119946;-82
2022/04/07 05:22:40;;;;;;;15.57;4.32;;;;;;;12.43;68.46;97614.91;4839839;28;119833;-83
2022/04/07 05:25:06;;;;;;;15.15;4.40;;;;;;;12.40;68.03;97613.25;4809976;28;121950;-83
2022/04/07 05:27:35;;;;;;;22.92;5.57;;;;;;;12.34;67.75;97613.38;4823226;28;119469;-83
2022/04/07 05:30:03;;;;;;;14.00;4.90;;;;;;;12.38;68.13;97615.78;4839966;28;119457;-83
2022/04/07 05:32:29;;;;;;;18.92;5.38;;;;;;;12.32;68.13;97590.47;4819487;28;121262;-83
2022/04/07 05:34:55;;;;;;;16.88;5.90;;;;;;;12.39;67.50;97590.50;4831363;28;120122;-83
2022/04/07 05:37:21;;;;;;;15.85;5.10;;;;;;;12.32;67.47;97576.72;4841507;28;120016;-83
2022/04/07 05:39:47;;;;;;;17.98;5.43;;;;;;;12.33;67.95;97584.44;4834325;28;122684;-82
2022/04/07 05:42:13;;;;;;;18.73;5.53;;;;;;;12.28;67.94;97575.03;4832370;28;120157;-83
2022/04/07 05:44:41;;;;;;;14.00;4.45;;;;;;;12.36;68.17;97577.13;4821133;28;122410;-83
2022/04/07 05:47:08;;;;;;;17.45;4.80;;;;;;;12.37;68.09;97562.09;4807733;28;123613;-83
2022/04/07 05:49:33;;;;;;;11.30;4.10;;;;;;;12.39;68.15;97565.03;4820330;28;121830;-83
2022/04/07 05:52:02;;;;;;;14.30;4.50;;;;;;;12.34;67.78;97550.16;4836631;28;123218;-82
2022/04/07 05:54:28;;;;;;;13.38;4.43;;;;;;;12.40;67.68;97553.50;4822694;28;120389;-83
2022/04/07 05:56:53;;;;;;;19.55;4.88;;;;;;;12.27;67.54;97523.34;4846254;28;122407;-83
2022/04/07 05:59:19;;;;;;;20.73;5.20;;;;;;;12.28;67.85;97531.06;4839559;28;120389;-83
2022/04/07 06:01:44;;;;;;;18.38;5.28;;;;;;;12.35;68.04;97518.66;4838872;28;119753;-82
2022/04/07 06:04:10;;;;;;;14.57;5.72;;;;;;;12.29;68.55;97520.81;4823681;28;121888;-83
2022/04/07 06:06:36;;;;;;;19.17;5.82;;;;;;;12.24;68.56;97510.69;4824646;28;120223;-83
2022/04/07 06:09:02;;;;;;;17.33;5.78;;;;;;;12.18;68.95;97499.13;4813738;28;119621;-83
2022/04/07 06:11:28;;;;;;;13.52;5.90;;;;;;;12.08;69.41;97479.63;4873829;28;120641;-84
2022/04/07 06:13:53;;;;;;;16.45;6.40;;;;;;;12.01;69.74;97466.56;4814235;28;120047;-83
2022/04/07 06:16:22;;;;;;;16.88;6.47;;;;;;;12.04;69.74;97475.72;4822003;29;122378;-83
2022/04/07 06:18:47;;;;;;;19.10;7.07;;;;;;;12.02;70.64;97495.50;4855078;28;119937;-83
2022/04/07 06:21:13;;;;;;;13.93;5.82;;;;;;;12.01;70.95;97496.03;4821823;29;119711;-85
2022/04/07 06:23:39;;;;;;;8.23;2.25;;;;;;;12.00;70.65;97487.06;4824030;28;121749;-85
2022/04/07 06:26:06;;;;;;;7.07;2.15;;;;;;;11.86;70.12;97491.91;4823182;28;123338;-85
2022/04/07 06:28:31;;;;;;;7.18;1.98;;;;;;;11.80;70.28;97507.00;4807704;28;121102;-85
2022/04/07 06:30:57;;;;;;;5.50;1.90;;;;;;;11.69;69.86;97497.75;4838346;28;120567;-85
2022/04/07 06:33:23;;;;;;;3.65;1.35;;;;;;;11.52;69.72;97505.63;4843095;28;119544;-86
2022/04/07 06:35:50;;;;;;;7.65;1.70;;;;;;;11.26;69.88;97503.69;4829057;28;120077;-85
2022/04/07 06:38:15;;;;;;;5.25;1.60;;;;;;;11.26;69.45;97508.44;4804041;28;122853;-86
2022/04/07 06:40:41;;;;;;;8.50;1.67;;;;;;;11.16;69.35;97496.44;4849506;28;119964;-86
2022/04/07 06:43:06;;;;;;;7.85;2.58;;;;;;;10.99;69.84;97483.06;4829454;28;121707;-86
2022/04/07 06:45:32;;;;;;;5.10;1.40;;;;;;;10.92;69.64;97470.75;4864000;28;120181;-86
2022/04/07 06:47:58;;;;;;;6.97;1.60;;;;;;;10.83;69.68;97471.16;4850138;28;120103;-86
2022/04/07 06:50:27;;;;;;;6.00;1.55;;;;;;;10.84;69.83;97478.13;4843298;28;119652;-86
2022/04/07 06:52:54;;;;;;;7.35;1.60;;;;;;;10.77;70.46;97456.84;4807220;28;121808;-86
2022/04/07 06:55:20;;;;;;;4.80;1.25;;;;;;;10.73;70.16;97445.47;4815495;28;122987;-86
2022/04/07 06:57:53;;;;;;;6.78;1.48;;;;;;;10.72;69.97;97428.28;4831597;28;122933;-86
2022/04/07 07:00:23;;;;;;;8.25;1.60;;;;;;;10.72;69.61;97425.56;4813349;28;119467;-86
2022/04/07 07:02:52;;;;;;;10.15;1.92;;;;;;;10.72;69.57;97411.09;4827163;28;121740;-86
2022/04/07 07:05:18;;;;;;;11.32;2.20;;;;;;;10.69;70.00;97409.44;4821517;28;122845;-84
2022/04/07 07:07:44;;;;;;;12.70;2.83;;;;;;;10.71;70.80;97409.63;4824709;28;120005;-85
2022/04/07 07:10:11;;;;;;;17.20;2.72;;;;;;;10.78;71.03;97403.50;4806488;28;121783;-86
2022/04/07 07:12:36;;;;;;;16.15;2.75;;;;;;;10.89;70.79;97419.72;4822882;28;122662;-85
2022/04/07 07:15:03;;;;;;;13.23;2.83;;;;;;;10.95;70.87;97414.13;4851392;28;119457;-85
2022/04/07 07:17:33;;;;;;;15.55;3.08;;;;;;;10.98;70.48;97413.78;4821535;29;122928;-85
2022/04/07 07:20:13;;;;;;;14.65;3.10;;;;;;;11.07;71.31;97416.06;4838952;28;119389;-84
2022/04/07 07:22:40;;;;;;;19.38;3.10;;;;;;;11.04;70.52;97397.94;4820803;28;122267;-85
2022/04/07 07:25:07;;;;;;;16.67;3.28;;;;;;;10.99;70.86;97390.59;4853624;28;119829;-85
2022/04/07 07:27:37;;;;;;;14.80;3.05;;;;;;;11.06;70.53;97395.41;4824414;28;119707;-85
2022/04/07 07:30:05;;;;;;;18.65;3.70;;;;;;;11.09;70.49;97407.31;4821083;28;119629;-84
2022/04/07 07:32:30;;;;;;;20.50;3.45;;;;;;;11.00;70.30;97386.56;4839115;28;122682;-85
2022/04/07 07:34:59;;;;;;;20.88;4.30;;;;;;;11.15;70.17;97401.72;4827104;28;119742;-86
2022/04/07 07:37:25;;;;;;;23.83;4.78;;;;;;;11.12;70.55;97386.31;4838147;28;120476;-85
2022/04/07 07:39:50;;;;;;;20.30;4.47;;;;;;;11.16;70.83;97397.72;4854378;28;119480;-85
2022/04/07 07:42:16;;;;;;;22.27;4.00;;;;;;;11.11;71.17;97380.09;4842528;28;122138;-85
2022/04/07 07:44:42;;;;;;;22.98;4.25;;;;;;;11.10;70.72;97373.13;4839334;28;122643;-86
2022/04/07 07:47:07;;;;;;;19.58;4.63;;;;;;;11.14;71.11;97381.06;4823424;28;119948;-85
2022/04/07 07:49:33;;;;;;;19.40;3.70;;;;;;;11.30;71.22;97377.91;4849364;28;119645;-85
2022/04/07 07:51:58;;;;;;;16.13;3.85;;;;;;;11.29;70.74;97370.22;4819397;29;122321;-83
2022/04/07 07:54:24;;;;;;;17.23;3.13;;;;;;;11.16;70.46;97349.06;4821726;28;120741;-84
2022/04/07 07:56:49;;;;;;;14.90;2.85;;;;;;;11.19;70.10;97356.22;4811130;28;122010;-84
2022/04/07 07:59:20;;;;;;;18.27;3.38;;;;;;;11.28;70.66;97361.25;4809722;29;119670;-84
2022/04/07 08:01:46;;;;;;;14.48;3.40;;;;;;;11.26;71.00;97358.31;4821858;28;120500;-84
2022/04/07 08:04:12;;;;;;;16.13;3.08;;;;;;;11.27;71.69;97386.47;4805196;29;123213;-85
2022/04/07 08:06:39;;;;;;;7.38;1.60;;;;;;;11.23;70.06;97361.38;4837212;28;119919;-86
2022/04/07 08:09:05;;;;;;;4.72;1.20;;;;;;;11.24;70.14;97376.56;4836230;28;121662;-86
2022/04/07 08:11:31;;;;;;;3.72;1.23;;;;;;;11.31;70.04;97370.41;4807621;28;123992;-86
2022/04/07 08:13:57;;;;;;;4.07;0.98;;;;;;;11.27;69.18;97364.53;4818921;29;120142;-87
2022/04/07 08:16:23;;;;;;;5.80;1.00;;;;;;;11.22;68.09;97352.41;4806329;28;121559;-86
2022/04/07 08:18:49;;;;;;;3.42;1.00;;;;;;;11.15;67.99;97347.59;4823730;28;122953;-86
2022/04/07 08:21:14;;;;;;;5.72;1.52;;;;;;;11.18;68.26;97359.50;4823187;28;120229;-86
2022/04/07 08:23:42;;;;;;;4.82;1.20;;;;;;;11.20;68.24;97357.69;4831301;28;123352;-87
2022/04/07 08:26:08;;;;;;;6.95;1.23;;;;;;;11.19;68.07;97347.28;4807701;28;119751;-87
2022/04/07 08:28:36;;;;;;;5.65;1.15;;;;;;;11.13;67.56;97343.94;4840578;28;119759;-86
2022/04/07 08:31:02;;;;;;;4.55;1.02;;;;;;;11.15;67.33;97355.84;4820170;28;122605;-86
2022/04/07 08:33:27;;;;;;;5.20;1.13;;;;;;;11.07;67.16;97341.28;4821881;28;121018;-86
2022/04/07 08:35:54;;;;;;;6.13;1.23;;;;;;;11.03;67.25;97335.41;4819449;28;121753;-86
2022/04/07 08:38:20;;;;;;;4.25;1.30;;;;;;;11.03;66.92;97336.13;4819146;28;121426;-86
2022/04/07 08:40:51;;;;;;;5.30;1.60;;;;;;;10.89;66.75;97328.53;4807152;28;119635;-86
2022/04/07 08:43:20;;;;;;;6.47;1.77;;;;;;;10.89;67.04;97336.75;4804273;28;122869;-86
2022/04/07 08:45:48;;;;;;;5.63;1.63;;;;;;;10.84;67.49;97329.38;4823311;28;119463;-87
2022/04/07 08:48:17;;;;;;;6.35;1.33;;;;;;;10.82;67.60;97321.66;4823109;28;119429;-86
2022/04/07 08:50:44;;;;;;;5.82;1.60;;;;;;;10.84;67.64;97321.88;4807152;28;123137;-86
2022/04/07 08:53:12;;;;;;;5.47;1.75;;;;;;;10.91;67.79;97326.72;4837769;28;119923;-86
2022/04/07 08:55:38;;;;;;;6.25;1.52;;;;;;;10.91;67.29;97307.53;4808106;28;121894;-87
2022/04/07 08:58:04;;;;;;;7.13;1.80;;;;;;;10.81;67.09;97283.81;4827473;28;122940;-86
2022/04/07 09:00:31;;;;;;;7.35;1.52;;;;;;;10.84;67.33;97305.44;4813374;28;119659;-86
2022/04/07 09:03:02;;;;;;;5.90;1.33;;;;;;;10.88;67.63;97330.50;4864024;28;120322;-87
2022/04/07 09:05:28;;;;;;;7.30;1.50;;;;;;;10.93;67.64;97318.69;4829287;28;119669;-86
2022/04/07 09:07:56;;;;;;;5.50;1.20;;;;;;;10.91;67.50;97315.00;4844125;28;122723;-86
2022/04/07 09:10:23;;;;;;;9.23;2.00;;;;;;;10.89;67.29;97326.50;4819079;28;123755;-86
2022/04/07 09:12:52;;;;;;;8.95;1.83;;;;;;;10.83;66.63;97301.22;4822995;28;119461;-86
2022/04/07 09:15:19;;;;;;;9.50;1.92;;;;;;;10.82;67.13;97293.53;4837065;28;122632;-86
2022/04/07 09:17:53;;;;;;;10.63;1.92;;;;;;;10.85;68.13;97292.44;4807285;28;123294;-87
2022/04/07 09:20:20;;;;;;;12.30;1.90;;;;;;;10.85;67.96;97298.66;4826587;28;119518;-86
2022/04/07 09:22:57;;;;;;;13.65;1.75;;;;;;;10.90;67.99;97283.38;4838527;28;120145;-86
2022/04/07 09:25:23;;;;;;;13.18;2.60;;;;;;;10.89;67.51;97266.19;4848675;28;119498;-86
2022/04/07 09:27:49;;;;;;;19.75;3.10;;;;;;;10.98;67.47;97262.97;4842100;28;121991;-86
2022/04/07 09:30:15;;;;;;;10.68;2.13;;;;;;;10.99;67.40;97264.44;4812437;28;123266;-86
2022/04/07 09:32:43;;;;;;;11.23;2.22;;;;;;;11.08;67.85;97258.50;4823418;28;120081;-86
2022/04/07 09:35:09;;;;;;;12.70;2.55;;;;;;;11.13;67.90;97251.41;4824500;28;121833;-86
2022/04/07 09:37:35;;;;;;;13.60;2.28;;;;;;;11.21;67.42;97263.16;4826173;28;120235;-86
2022/04/07 09:40:09;;;;;;;17.23;2.65;;;;;;;11.18;67.77;97247.78;4819500;28;119533;-86
2022/04/07 09:42:35;;;;;;;14.50;2.92;;;;;;;11.31;68.13;97258.66;4853315;28;119588;-86
2022/04/07 09:45:04;;;;;;;17.83;2.90;;;;;;;11.40;69.20;97229.28;4822409;28;122918;-86
2022/04/07 09:47:43;;;;;;;17.40;3.08;;;;;;;11.73;68.99;97246.88;4805284;28;122003;-86
2022/04/07 09:50:31;;;;;;;19.67;3.03;;;;;;;11.81;68.34;97228.44;4834453;28;119891;-86
2022/04/07 09:53:05;;;;;;;21.75;3.03;;;;;;;11.99;68.06;97227.44;4836412;28;120118;-86
2022/04/07 09:55:41;;;;;;;16.63;3.00;;;;;;;12.09;66.97;97244.16;4823734;28;122044;-85
2022/04/07 09:58:08;;;;;;;19.33;2.95;;;;;;;12.05;66.82;97221.78;4826147;28;122734;-85
2022/04/07 10:00:35;;;;;;;14.13;2.55;;;;;;;12.09;67.45;97242.13;4819786;28;120564;-85
2022/04/07 10:03:02;;;;;;;10.43;2.67;;;;;;;12.14;67.45;97237.75;4829735;28;122135;-84
2022/04/07 10:05:29;;;;;;;21.20;3.28;;;;;;;12.20;66.73;97230.09;4815471;28;123831;-85
2022/04/07 10:07:57;;;;;;;18.95;2.47;;;;;;;12.22;66.25;97222.75;4847656;28;119517;-84
2022/04/07 10:10:24;;;;;;;17.70;2.67;;;;;;;12.21;67.37;97226.06;4852182;28;119954;-85
2022/04/07 10:12:52;;;;;;;14.68;2.47;;;;;;;12.21;66.77;97215.78;4817728;28;119524;-85
2022/04/07 10:15:18;;;;;;;12.02;2.45;;;;;;;12.28;66.52;97223.31;4816777;28;121837;-84
2022/04/07 10:17:45;;;;;;;14.20;2.83;;;;;;;12.25;65.87;97216.16;4804148;28;122751;-85
2022/04/07 10:20:17;;;;;;;17.33;3.30;;;;;;;12.29;66.56;97213.06;4817775;28;120508;-85
2022/04/07 10:22:43;;;;;;;18.73;2.92;;;;;;;12.38;66.12;97215.31;4842869;28;120209;-85
2022/04/07 10:25:10;;;;;;;14.88;2.75;;;;;;;12.33;66.12;97199.00;4804582;28;123098;-85
2022/04/07 10:27:43;;;;;;;17.23;3.00;;;;;;;12.39;66.20;97207.78;4821332;28;120177;-85
2022/04/07 10:30:14;;;;;;;20.92;3.28;;;;;;;12.35;66.62;97196.44;4858581;28;119405;-85
2022/04/07 10:32:40;;;;;;;18.88;3.22;;;;;;;12.51;67.18;97197.91;4821245;28;119848;-85
2022/04/07 10:35:24;;;;;;;15.38;3.17;;;;;;;12.55;66.83;97177.06;4846043;28;119605;-85
2022/04/07 10:37:50;;;;;;;12.70;3.08;;;;;;;12.65;66.09;97182.72;4835003;28;122947;-85
2022/04/07 10:40:35;;;;;;;20.67;3.88;;;;;;;12.79;66.14;97180.56;4835825;28;119975;-86
2022/04/07 10:43:17;;;;;;;;;;;;;;;12.84;65.57;97183.13;4837654;28;120497;-85
2022/04/07 10:46:06;;;;;;;17.38;3.40;;;;;;;12.95;65.21;97178.50;4802776;29;124347;-86
2022/04/07 10:48:59;;;;;;;13.20;2.63;;;;;;;13.03;65.40;97168.25;4851842;28;119630;-85
2022/04/07 10:51:58;;;;;;;14.55;2.97;;;;;;;13.03;64.34;97162.75;4842701;28;119602;-85
2022/04/07 10:54:28;;;;;;;12.57;2.85;;;;;;;13.02;65.04;97151.03;4819069;28;121400;-85
2022/04/07 10:57:01;;;;;;;10.27;2.33;;;;;;;13.12;63.83;97149.16;4812899;28;122213;-84
2022/04/07 10:59:32;;;;;;;10.20;2.47;;;;;;;13.04;63.50;97153.22;4839473;28;122728;-85
2022/04/07 11:02:03;;;;;;;11.63;2.80;;;;;;;13.06;63.69;97161.66;4838272;28;120795;-86
2022/04/07 11:04:32;;;;;;;13.70;2.50;;;;;;;13.10;62.90;97162.00;4857400;28;119752;-85
2022/04/07 11:07:07;;;;;;;10.88;2.10;;;;;;;13.00;63.68;97170.06;4839124;28;120350;-85
2022/04/07 11:10:00;;;;;;;14.45;2.50;;;;;;;12.83;63.69;97173.41;4838065;28;120072;-85
2022/04/07 11:12:37;;;;;;;15.07;2.53;;;;;;;12.70;63.23;97170.81;4816380;28;122519;-85
2022/04/07 11:15:03;;;;;;;9.13;2.25;;;;;;;12.55;64.15;97155.06;4822570;29;121871;-85
2022/04/07 11:17:33;;;;;;;11.43;2.53;;;;;;;12.46;64.86;97160.34;4823814;28;122125;-84